Fruitland
, Fruitland
Last Weather Update:12/30/2011 11:00:00 PM
Date
ETo
ETc
Rain
Irrigation
Req
Temp
Max
Temp
Min
Temp
Avg
Avg RH
Avg Wind
Avg Solar
inches
inches
incehs
inches
F
F
F
%
%
watts/m2
11/01/2011 0.03" 0.00" 0.10" -0.08" 43.9° 22.4° 30.8° 74.2% 6.9 MPH 63.7w/m2
11/02/2011 0.07" 0.00" 0.00" 0.00" 41.8° 12.7° 25.5° 56.7% 2.9 MPH 165.6w/m2
11/03/2011 0.07" 0.00" 0.00" 0.00" 43.4° 6.4° 24.0° 62.6% 3.6 MPH 159.8w/m2
11/04/2011 0.09" 0.00" 0.02" -0.02" 52.2° 11.1° 33.3° 61.5% 4.8 MPH 151.4w/m2
11/05/2011 0.05" 0.00" 0.00" 0.00" 35.7° 18.5° 27.6° 66.2% 9.1 MPH 118.8w/m2
11/06/2011 0.04" 0.00" 0.01" -0.01" 40.2° 16.8° 27.3° 64.8% 2.0 MPH 79.9w/m2
11/07/2011 0.04" 0.00" 0.00" 0.00" 42.4° 18.6° 27.5° 79.6% 1.0 MPH 100.7w/m2
11/08/2011 0.06" 0.00" 0.01" -0.01" 40.5° 15.8° 26.7° 63.6% 7.7 MPH 145.0w/m2
11/09/2011 0.06" 0.00" 0.00" 0.00" 45.9° 4.2° 23.7° 61.1% 2.5 MPH 151.3w/m2
11/10/2011 0.06" 0.00" 0.00" 0.00" 51.5° 5.9° 24.3° 59.0% 2.2 MPH 147.3w/m2
11/11/2011 0.04" 0.00" 0.00" 0.00" 46.0° 7.6° 25.3° 58.6% 0.5 MPH 110.3w/m2
11/12/2011 0.03" 0.00" 0.03" -0.02" 39.9° 19.5° 31.5° 82.0% 6.9 MPH 61.8w/m2
11/13/2011 0.05" 0.00" 0.02" -0.02" 43.5° 23.6° 34.7° 73.8% 10.8 MPH 129.9w/m2
11/14/2011 0.09" 0.00" 0.00" 0.00" 46.7° 24.4° 35.6° 43.2% 9.1 MPH 141.4w/m2
11/15/2011 0.08" 0.00" 0.00" 0.00" 44.0° 20.7° 32.0° 48.5% 7.4 MPH 141.6w/m2
11/16/2011 0.06" 0.00" 0.00" 0.00" 42.0° 17.0° 28.5° 50.4% 4.9 MPH 140.2w/m2
11/17/2011 0.06" 0.00" 0.00" 0.00" 52.4° 10.9° 29.8° 54.9% 1.2 MPH 136.9w/m2
11/18/2011 0.07" 0.00" 0.00" 0.00" 51.2° 13.2° 33.6° 55.8% 5.7 MPH 92.6w/m2
11/19/2011 0.03" 0.00" 0.04" -0.03" 33.7° 22.4° 27.1° 75.5% 6.7 MPH 96.6w/m2
11/20/2011 0.03" 0.00" 0.02" -0.02" 39.9° 19.2° 28.4° 84.1% 0.1 MPH 75.8w/m2
11/21/2011 0.00" 0.00" 0.00" 0.00" 29.3° 24.5° 27.9° 95.3% 0.0 MPH 0.0w/m2
11/22/2011 0.05" 0.00" 0.00" 0.00" 48.3° 19.1° 31.4° 72.9% 0.9 MPH 132.1w/m2
11/23/2011 0.04" 0.00" 0.00" 0.00" 48.7° 15.2° 28.7° 75.8% 0.5 MPH 105.7w/m2
11/24/2011 0.02" 0.00" 0.00" 0.00" 47.6° 16.9° 28.3° 79.2% 0.6 MPH 66.5w/m2
11/25/2011 0.07" 0.00" 0.00" 0.00" 44.9° 21.8° 32.6° 57.9% 9.3 MPH 117.8w/m2
11/26/2011 0.05" 0.00" 0.00" 0.00" 43.1° 12.5° 26.6° 44.3% 2.8 MPH 126.2w/m2
11/27/2011 0.04" 0.00" 0.00" 0.00" 48.8° 8.9° 24.0° 63.8% 0.1 MPH 123.4w/m2
11/28/2011 0.03" 0.00" 0.00" 0.00" 51.0° 11.7° 26.9° 64.4% 0.0 MPH 89.1w/m2
11/29/2011 0.05" 0.00" 0.00" 0.00" 52.8° 18.3° 32.9° 56.5% 1.1 MPH 121.7w/m2
11/30/2011 0.06" 0.00" 0.00" 0.00" 51.7° 13.2° 31.0° 64.9% 3.7 MPH 118.5w/m2
Totals: 1.51" 0.00" 0.25" -0.20" 52.8° 4.2° 28.9° 65.0% 3.8 MPH 113.7w/m2